Alberta, Minnesota
Current Conditions -  °F | °C
As of 4:04 PM on Friday 31 Oct 2014 (Local Time) from KMOX Reporting Station
Clear Clear  
Wind Chill: 33°   Ceiling: Unl
Heat Index: 37°   Visibility: 10mi
Dew Point: 21°   Wind: 6mph
Humidity: 52%   Direction: 150°SSE
Pressure: 30.48"   Gusts: NA
Location:  45.57°N, 96.05°W
Report Text: KMOX 312104Z AUTO 15005KT 10SM CLR 03/M06 A3048 RMK AO2
Loading
Personal Weather Stations






























Interactive Weather Map
Tropical Storm Tracking
New forecast layout! Learn more

10-Day Weather Forecast

Advertisements
Track Severe Weather on mobile